モントリオール/トルドー の空港の天気 - METARとTAF

モントリオール・ピエール・エリオット・トルドー国際空港 ( CYUL / YUL ) - カナダ ケベック州モントリオール
飛行場実況気象(Metar)
観測時間01/18 05:00 EST (01/18 10:00 UTC)
風向・風速北 2m/s
視程10km以上
天気現象
少しの雲 雲底高度 300m
全天を覆う雲 雲底高度 5490m
気温-18℃
湿度77%
気圧1038.7hPa
METARCYUL 181000Z 01003KT 15SM FEW010 OVC180 M18/M21 A3066 RMK SC1AS8 SC TR SLP387
過去の天気等 Google飛行場航空写真 Wunderground天気予報

過去48時間のMETAR

飛行場予報(TAF)
発表時間: 1/18 03:40 EST (1/18 08:40 UTC)
予報対象時間: 18日4時 EST ~ 19日1時 EST
風向・風速不定 2m/s
視程10km以上
全天を覆う雲 雲底高度 6710m
18日8時 EST から
風向・風速北東 4m/s
視程10km以上
少しの雲 雲底高度 610m
全天の8割程度の雲 雲底高度 3660m
18日17時 EST から
風向・風速北東 6m/s
視程8850m
天気現象弱い雪
全天を覆う雲 鉛直視程 460m
18日18時 EST から
風向・風速北東 6m/s 瞬間風速 11m/s
視程1210m
天気現象弱い雪 高い地吹雪
全天を覆う雲 鉛直視程 240m
18日20時 EST から 確率 30% で
視程600m
天気現象雪 高い地吹雪
全天を覆う雲 鉛直視程 120m
TAF CYUL 180840Z 1809/1906 VRB03KT P6SM OVC220
FM181300 05008KT P6SM FEW020 BKN120
FM182200 05012KT 11/2SM -SN VV015
FM182300 04012G22KT 3/4SM -SN BLSN VV008
PROB30 1901/1905 3/8SM SN BLSN VV004 RMK NXT FCST BY 181200Z